createdAt,value
2019-01-11T00:01:18.063Z,2.83
2019-01-11T00:03:44.840Z,3.00
2019-01-11T00:06:11.561Z,3.20
2019-01-11T00:08:38.409Z,2.90
2019-01-11T00:11:05.859Z,3.03
2019-01-11T00:13:33.424Z,3.17
2019-01-11T00:16:01.068Z,3.20
2019-01-11T00:18:28.531Z,3.50
2019-01-11T00:20:55.979Z,3.37
2019-01-11T00:23:22.808Z,3.67
2019-01-11T00:25:49.511Z,3.67
2019-01-11T00:28:16.276Z,3.80
2019-01-11T00:30:43.050Z,4.00
2019-01-11T00:33:10.528Z,3.90
2019-01-11T00:35:37.225Z,3.40
2019-01-11T00:38:04.007Z,3.63
2019-01-11T00:40:31.490Z,3.60
2019-01-11T00:42:58.226Z,4.07
2019-01-11T00:45:25.037Z,3.90
2019-01-11T00:47:52.425Z,3.70
2019-01-11T00:50:19.223Z,4.13
2019-01-11T00:52:46.722Z,4.07
2019-01-11T00:55:13.467Z,4.03
2019-01-11T00:57:40.171Z,4.53
2019-01-11T01:00:10.972Z,4.73
2019-01-11T01:02:37.778Z,4.77
2019-01-11T01:05:04.662Z,4.60
2019-01-11T01:07:31.403Z,4.40
2019-01-11T01:09:58.092Z,4.97
2019-01-11T01:12:24.786Z,5.10
2019-01-11T01:14:51.613Z,5.20
2019-01-11T01:17:18.294Z,5.27
2019-01-11T01:19:45.745Z,5.30
2019-01-11T01:22:13.284Z,4.80
2019-01-11T01:24:40.752Z,5.17
2019-01-11T01:27:07.540Z,5.23
2019-01-11T01:29:34.253Z,5.20
2019-01-11T01:32:01.742Z,5.27
2019-01-11T01:34:28.432Z,5.53
2019-01-11T01:36:55.123Z,6.00
2019-01-11T01:39:21.849Z,5.90
2019-01-11T01:41:48.520Z,6.13
2019-01-11T01:44:15.234Z,5.93
2019-01-11T01:46:41.981Z,6.17
2019-01-11T01:49:08.777Z,6.50
2019-01-11T01:51:35.499Z,5.93
2019-01-11T01:54:02.302Z,6.27
2019-01-11T01:56:28.996Z,6.67
2019-01-11T01:58:55.678Z,6.20
2019-01-11T02:01:22.382Z,6.17
2019-01-11T02:03:49.821Z,7.13
2019-01-11T02:06:17.285Z,7.57
2019-01-11T02:08:44.921Z,7.40
2019-01-11T02:11:11.664Z,6.67
2019-01-11T02:13:38.553Z,7.07
2019-01-11T02:16:05.375Z,7.20
2019-01-11T02:18:32.128Z,7.53
2019-01-11T02:20:59.640Z,7.73
2019-01-11T02:23:26.385Z,6.77
2019-01-11T02:25:53.123Z,6.70
2019-01-11T02:28:19.805Z,7.17
2019-01-11T02:30:47.265Z,6.40
2019-01-11T02:33:14.720Z,6.50
2019-01-11T02:35:42.225Z,6.30
2019-01-11T02:38:09.765Z,5.70
2019-01-11T02:40:36.422Z,6.77
2019-01-11T02:43:03.241Z,6.43
2019-01-11T02:45:29.952Z,6.87
2019-01-11T02:47:57.375Z,7.13
2019-01-11T02:50:24.102Z,6.47
2019-01-11T02:52:50.871Z,6.67
2019-01-11T02:55:17.645Z,6.53
2019-01-11T02:57:44.386Z,6.27
2019-01-11T03:00:12.001Z,6.60
2019-01-11T03:02:38.783Z,6.23
2019-01-11T03:05:06.246Z,6.53
2019-01-11T03:07:33.733Z,6.23
2019-01-11T03:10:00.457Z,6.43
2019-01-11T03:12:27.860Z,6.40
2019-01-11T03:14:54.550Z,5.70
2019-01-11T03:17:21.271Z,6.43
2019-01-11T03:19:48.713Z,6.27
2019-01-11T03:22:15.379Z,6.17
2019-01-11T03:24:42.831Z,6.30
2019-01-11T03:27:09.552Z,6.13
2019-01-11T03:29:36.264Z,6.00
2019-01-11T03:32:03.029Z,6.00
2019-01-11T03:34:29.756Z,6.07
2019-01-11T03:36:56.577Z,6.03
2019-01-11T03:39:23.233Z,5.80
2019-01-11T03:41:51.792Z,6.40
2019-01-11T03:44:18.597Z,6.67
2019-01-11T03:46:46.069Z,6.63
2019-01-11T03:49:12.753Z,5.93
2019-01-11T03:51:39.463Z,6.17
2019-01-11T03:54:06.185Z,5.77
2019-01-11T03:56:33.608Z,5.80
2019-01-11T03:59:00.311Z,6.00
2019-01-11T04:01:26.987Z,6.60
2019-01-11T04:03:53.723Z,6.37
2019-01-11T04:06:20.387Z,6.27
2019-01-11T04:08:47.866Z,6.83
2019-01-11T04:11:14.623Z,6.53
2019-01-11T04:13:41.304Z,6.47
2019-01-11T04:16:08.019Z,6.43
2019-01-11T04:18:34.812Z,6.63
2019-01-11T04:21:02.275Z,7.00
2019-01-11T04:23:29.031Z,6.57
2019-01-11T04:25:55.812Z,6.97
2019-01-11T04:28:23.294Z,6.73
2019-01-11T04:30:50.722Z,7.50
2019-01-11T04:33:17.513Z,6.73
2019-01-11T04:35:44.255Z,6.83
2019-01-11T04:38:11.707Z,6.97
2019-01-11T04:40:38.557Z,6.73
2019-01-11T04:43:05.276Z,7.03
2019-01-11T04:45:32.692Z,7.83
2019-01-11T04:48:00.184Z,7.53
2019-01-11T04:50:26.901Z,7.50
2019-01-11T04:52:53.571Z,7.20
2019-01-11T04:55:21.057Z,6.43
2019-01-11T04:57:47.756Z,7.43
2019-01-11T05:00:15.542Z,7.57
2019-01-11T05:02:42.243Z,7.40
2019-01-11T05:05:08.946Z,6.67
2019-01-11T05:07:35.714Z,7.00
2019-01-11T05:10:02.501Z,7.17
2019-01-11T05:12:29.220Z,6.67
2019-01-11T05:14:55.965Z,6.47
2019-01-11T05:17:22.650Z,7.10
2019-01-11T05:19:49.352Z,7.07
2019-01-11T05:22:16.789Z,7.43
2019-01-11T05:24:43.436Z,7.00
2019-01-11T05:27:10.186Z,6.93
2019-01-11T05:29:36.904Z,7.13
2019-01-11T05:32:03.688Z,7.50
2019-01-11T05:34:30.423Z,7.13
2019-01-11T05:36:57.878Z,6.30
2019-01-11T05:39:24.585Z,6.63
2019-01-11T05:41:51.397Z,6.53
2019-01-11T05:44:18.074Z,6.80
2019-01-11T05:46:44.876Z,6.57
2019-01-11T05:49:11.649Z,6.30
2019-01-11T05:51:38.399Z,5.90
2019-01-11T05:54:05.159Z,5.77
2019-01-11T05:56:32.594Z,5.60
2019-01-11T05:58:59.291Z,5.70
2019-01-11T06:01:26.055Z,5.33
2019-01-11T06:03:52.793Z,5.40
2019-01-11T06:06:19.601Z,5.50
2019-01-11T06:08:46.360Z,5.40
2019-01-11T06:11:13.244Z,6.03
2019-01-11T06:13:39.981Z,5.17
2019-01-11T06:16:07.500Z,5.63
2019-01-11T06:18:35.001Z,4.90
2019-01-11T06:21:01.762Z,5.57
2019-01-11T06:23:29.212Z,5.50
2019-01-11T06:25:56.676Z,5.77
2019-01-11T06:28:23.525Z,5.17
2019-01-11T06:30:50.435Z,5.37
2019-01-11T06:33:17.240Z,5.13
2019-01-11T06:35:43.965Z,5.07
2019-01-11T06:38:10.637Z,5.30
2019-01-11T06:40:37.473Z,5.97
2019-01-11T06:43:04.221Z,6.13
2019-01-11T06:45:30.922Z,5.80
2019-01-11T06:47:57.694Z,5.30
2019-01-11T06:50:24.426Z,4.83
2019-01-11T06:52:51.108Z,5.23
2019-01-11T06:55:17.854Z,4.77
2019-01-11T06:57:45.255Z,4.83
2019-01-11T07:00:13.802Z,5.30
2019-01-11T07:02:41.308Z,5.30
2019-01-11T07:05:08.048Z,4.67
2019-01-11T07:07:34.725Z,4.87
2019-01-11T07:10:01.493Z,4.47
2019-01-11T07:12:28.964Z,4.80
2019-01-11T07:14:55.649Z,4.60
2019-01-11T07:17:22.377Z,4.10
2019-01-11T07:19:49.776Z,4.00
2019-01-11T07:22:17.242Z,3.90
2019-01-11T07:24:44.742Z,3.90
2019-01-11T07:27:11.407Z,3.67
2019-01-11T07:29:38.946Z,3.40
2019-01-11T07:32:06.539Z,3.30
2019-01-11T07:34:33.217Z,3.30
2019-01-11T07:36:59.923Z,3.27
2019-01-11T07:39:27.401Z,3.23
2019-01-11T07:41:54.835Z,2.83
2019-01-11T07:44:22.806Z,3.00
2019-01-11T07:46:49.491Z,2.93
2019-01-11T07:49:16.259Z,2.40
2019-01-11T07:51:42.962Z,2.33
2019-01-11T07:54:09.716Z,2.67
2019-01-11T07:56:36.491Z,2.43
2019-01-11T07:59:03.228Z,2.30
2019-01-11T08:01:29.947Z,2.27
2019-01-11T08:03:56.701Z,2.17
2019-01-11T08:06:24.203Z,1.97
2019-01-11T08:08:51.633Z,1.87
2019-01-11T08:11:18.493Z,1.80
2019-01-11T08:13:46.789Z,2.03
2019-01-11T08:16:13.626Z,1.77
2019-01-11T08:18:40.342Z,1.60
2019-01-11T08:21:07.021Z,1.50
2019-01-11T08:23:33.728Z,1.60
2019-01-11T08:26:01.250Z,1.57
2019-01-11T08:28:27.969Z,1.27
2019-01-11T08:30:54.661Z,1.33
2019-01-11T08:33:21.542Z,1.70
2019-01-11T08:35:48.241Z,1.33
2019-01-11T08:38:14.948Z,1.27
2019-01-11T08:40:41.602Z,1.10
2019-01-11T08:43:09.058Z,1.30
2019-01-11T08:45:35.811Z,1.20
2019-01-11T08:48:02.581Z,1.00
2019-01-11T08:50:30.044Z,0.97
2019-01-11T08:52:56.855Z,1.00
2019-01-11T08:55:23.581Z,1.10
2019-01-11T08:57:50.362Z,1.20
2019-01-11T09:00:22.365Z,1.23
2019-01-11T09:02:49.023Z,0.90
2019-01-11T09:05:15.768Z,0.97
2019-01-11T09:07:42.544Z,1.17
2019-01-11T09:10:22.628Z,0.80
2019-01-11T09:12:44.905Z,0.77
2019-01-11T09:15:11.681Z,1.00
2019-01-11T09:17:44.328Z,1.60
2019-01-11T09:20:11.113Z,1.07
2019-01-11T09:22:37.855Z,0.80
2019-01-11T09:25:04.576Z,1.17
2019-01-11T09:27:32.018Z,1.30
2019-01-11T09:29:59.497Z,1.07
2019-01-11T09:32:26.230Z,1.17
2019-01-11T09:34:52.995Z,0.70
2019-01-11T09:37:19.683Z,0.60
2019-01-11T09:39:46.476Z,1.30
2019-01-11T09:42:13.213Z,0.90
2019-01-11T09:44:39.890Z,0.80
2019-01-11T09:47:06.632Z,0.80
2019-01-11T09:49:34.045Z,0.60
2019-01-11T09:52:00.733Z,0.90
2019-01-11T09:54:27.531Z,0.97
2019-01-11T09:56:54.218Z,0.50
2019-01-11T09:59:20.913Z,0.97
2019-01-11T10:01:47.695Z,1.10
2019-01-11T10:04:14.469Z,0.70
2019-01-11T10:06:41.915Z,1.10
2019-01-11T10:09:09.403Z,0.60
2019-01-11T10:11:36.071Z,0.60
2019-01-11T10:14:02.900Z,0.80
2019-01-11T10:16:29.621Z,0.97
2019-01-11T10:18:56.312Z,0.80
2019-01-11T10:21:24.044Z,0.87
2019-01-11T10:23:49.812Z,0.57
2019-01-11T10:26:16.595Z,0.93
2019-01-11T10:28:43.357Z,0.90
2019-01-11T10:31:10.067Z,0.77
2019-01-11T10:33:36.728Z,1.50
2019-01-11T10:36:03.547Z,0.83
2019-01-11T10:38:30.264Z,1.00
2019-01-11T10:40:57.678Z,1.07
2019-01-11T10:43:24.401Z,0.90
2019-01-11T10:45:51.087Z,0.87
2019-01-11T10:48:17.757Z,0.80
2019-01-11T10:50:44.460Z,0.83
2019-01-11T10:53:11.283Z,1.03
2019-01-11T10:55:38.011Z,1.00
2019-01-11T10:58:04.717Z,0.90
2019-01-11T11:00:31.466Z,0.90
2019-01-11T11:02:58.193Z,0.60
2019-01-11T11:05:24.928Z,0.83
2019-01-11T11:07:52.497Z,0.83
2019-01-11T11:10:19.228Z,0.93
2019-01-11T11:12:46.680Z,1.00
2019-01-11T11:15:14.242Z,0.80
2019-01-11T11:17:41.740Z,1.20
2019-01-11T11:20:09.440Z,1.03
2019-01-11T11:22:36.272Z,1.10
2019-01-11T11:25:03.295Z,0.70
2019-01-11T11:27:30.321Z,1.00
2019-01-11T11:29:57.166Z,0.70
2019-01-11T11:32:24.029Z,1.03
2019-01-11T11:34:50.780Z,0.97
2019-01-11T11:37:18.345Z,1.07
2019-01-11T11:39:45.105Z,0.90
2019-01-11T11:42:11.781Z,0.73
2019-01-11T11:44:38.578Z,1.00
2019-01-11T11:47:05.284Z,1.30
2019-01-11T11:49:32.142Z,1.03
2019-01-11T11:51:59.039Z,1.03
2019-01-11T11:54:26.008Z,0.70
2019-01-11T11:56:53.045Z,0.87
2019-01-11T11:59:19.738Z,1.10
2019-01-11T12:01:46.803Z,0.80
2019-01-11T12:04:13.528Z,0.87
2019-01-11T12:06:41.173Z,1.13
2019-01-11T12:09:08.046Z,0.73
2019-01-11T12:11:34.926Z,0.80
2019-01-11T12:14:02.610Z,0.97
2019-01-11T12:16:30.368Z,0.67
2019-01-11T12:18:57.317Z,0.80
2019-01-11T12:21:24.083Z,1.00
2019-01-11T12:23:51.066Z,1.03
2019-01-11T12:26:18.050Z,0.80
2019-01-11T12:28:44.840Z,1.07
2019-01-11T12:31:11.685Z,0.63
2019-01-11T12:33:38.667Z,0.70
2019-01-11T12:36:06.381Z,0.70
2019-01-11T12:38:33.439Z,0.50
2019-01-11T12:41:00.349Z,0.90
2019-01-11T12:43:27.072Z,0.93
2019-01-11T12:45:54.049Z,0.83
2019-01-11T12:48:20.971Z,0.50
2019-01-11T12:50:47.743Z,1.00
2019-01-11T12:53:14.480Z,0.70
2019-01-11T12:55:41.287Z,0.53
2019-01-11T12:58:08.022Z,0.80
2019-01-11T13:00:34.794Z,0.77
2019-01-11T13:03:02.206Z,0.90
2019-01-11T13:05:28.912Z,0.80
2019-01-11T13:07:56.406Z,0.77
2019-01-11T13:10:23.088Z,0.80
2019-01-11T13:12:49.824Z,0.67
2019-01-11T13:15:16.622Z,0.80
2019-01-11T13:17:43.397Z,0.73
2019-01-11T13:20:10.169Z,0.80
2019-01-11T13:22:36.951Z,0.53
2019-01-11T13:25:03.690Z,0.80
2019-01-11T13:27:30.398Z,0.63
2019-01-11T13:29:57.111Z,0.70
2019-01-11T13:32:23.810Z,0.53
2019-01-11T13:34:50.584Z,0.63
2019-01-11T13:37:17.356Z,0.70
2019-01-11T13:39:44.081Z,0.90
2019-01-11T13:42:10.873Z,0.80
2019-01-11T13:44:39.453Z,0.80
2019-01-11T13:47:06.521Z,0.70
2019-01-11T13:49:33.234Z,0.70
2019-01-11T13:52:07.002Z,0.70
2019-01-11T13:54:27.675Z,0.40
2019-01-11T13:56:54.446Z,1.10
2019-01-11T13:59:21.129Z,0.93
2019-01-11T14:01:47.846Z,0.83
2019-01-11T14:04:15.325Z,0.70
2019-01-11T14:06:42.046Z,0.53
2019-01-11T14:09:09.500Z,0.70
2019-01-11T14:11:36.922Z,0.80
2019-01-11T14:14:04.450Z,0.40
2019-01-11T14:16:31.138Z,0.57
2019-01-11T14:18:58.614Z,0.77
2019-01-11T14:21:26.085Z,0.70
2019-01-11T14:23:52.841Z,0.80
2019-01-11T14:26:19.607Z,0.60
2019-01-11T14:28:46.749Z,0.60
2019-01-11T14:31:13.527Z,0.50
2019-01-11T14:33:41.001Z,0.60
2019-01-11T14:36:08.545Z,0.70
2019-01-11T14:38:35.275Z,0.70
2019-01-11T14:41:02.046Z,0.63
2019-01-11T14:43:28.778Z,0.40
2019-01-11T14:45:56.204Z,0.60
2019-01-11T14:48:22.893Z,0.90
2019-01-11T14:50:50.416Z,0.50
2019-01-11T14:53:17.095Z,0.40
2019-01-11T14:55:43.784Z,0.53
2019-01-11T14:58:10.582Z,0.50
2019-01-11T15:00:37.324Z,0.50
2019-01-11T15:03:04.102Z,0.80
2019-01-11T15:05:30.842Z,0.60
2019-01-11T15:07:57.568Z,0.30
2019-01-11T15:10:24.332Z,0.60
2019-01-11T15:12:51.126Z,0.50
2019-01-11T15:15:17.817Z,0.93
2019-01-11T15:17:44.609Z,0.40
2019-01-11T15:20:12.149Z,0.60
2019-01-11T15:22:39.604Z,0.47
2019-01-11T15:25:06.411Z,0.70
2019-01-11T15:27:33.868Z,0.60
2019-01-11T15:30:00.569Z,0.70
2019-01-11T15:32:27.360Z,0.60
2019-01-11T15:34:54.108Z,0.70
2019-01-11T15:37:20.864Z,0.77
2019-01-11T15:39:48.368Z,0.40
2019-01-11T15:42:15.135Z,0.70
2019-01-11T15:44:41.842Z,0.60
2019-01-11T15:47:08.694Z,0.70
2019-01-11T15:49:35.387Z,0.40
2019-01-11T15:52:02.116Z,0.47
2019-01-11T15:54:29.589Z,0.63
2019-01-11T15:56:57.047Z,0.50
2019-01-11T15:59:24.521Z,0.60
2019-01-11T16:01:51.285Z,0.43
2019-01-11T16:04:17.986Z,0.50
2019-01-11T16:06:44.829Z,0.40
2019-01-11T16:12:15.326Z,0.60
2019-01-11T16:14:47.882Z,0.53
2019-01-11T16:17:15.610Z,0.60
2019-01-11T16:19:43.091Z,0.43
2019-01-11T16:22:09.858Z,0.50
2019-01-11T16:24:36.600Z,0.60
2019-01-11T16:27:03.446Z,0.40
2019-01-11T16:29:30.207Z,0.87
2019-01-11T16:31:57.973Z,0.47
2019-01-11T16:34:25.488Z,0.40
2019-01-11T16:36:53.110Z,0.30
2019-01-11T16:39:20.655Z,0.40
2019-01-11T16:41:47.382Z,0.57
2019-01-11T16:44:15.011Z,0.50
2019-01-11T16:46:41.910Z,0.40
2019-01-11T16:49:09.370Z,0.50
2019-01-11T16:51:36.063Z,0.57
2019-01-11T16:54:02.874Z,0.60
2019-01-11T16:56:29.640Z,0.60
2019-01-11T16:58:56.423Z,0.50
2019-01-11T17:01:24.032Z,0.50
2019-01-11T17:03:50.740Z,0.50
2019-01-11T17:06:18.250Z,0.47
2019-01-11T17:08:44.937Z,0.40
2019-01-11T17:11:12.374Z,0.40
2019-01-11T17:13:40.740Z,0.50
2019-01-11T17:16:06.149Z,0.43
2019-01-11T17:18:32.920Z,0.57
2019-01-11T17:21:00.523Z,0.50
2019-01-11T17:23:27.188Z,0.53
2019-01-11T17:25:54.644Z,0.80
2019-01-11T17:28:21.387Z,0.57
2019-01-11T17:30:48.072Z,0.50
2019-01-11T17:33:14.791Z,0.50
2019-01-11T17:35:42.258Z,0.80
2019-01-11T17:38:09.686Z,0.37
2019-01-11T17:40:36.402Z,0.67
2019-01-11T17:43:03.224Z,0.50
2019-01-11T17:45:29.952Z,0.30
2019-01-11T17:47:56.659Z,0.50
2019-01-11T17:50:23.405Z,0.57
2019-01-11T17:52:50.838Z,0.30
2019-01-11T17:55:17.511Z,0.50
2019-01-11T17:57:45.001Z,0.50
2019-01-11T18:00:11.795Z,0.40
2019-01-11T18:02:39.280Z,0.30
2019-01-11T18:05:06.803Z,0.50
2019-01-11T18:07:33.509Z,0.30
2019-01-11T18:10:00.231Z,0.30
2019-01-11T18:12:26.955Z,0.33
2019-01-11T18:14:54.347Z,0.47
2019-01-11T18:17:21.557Z,0.60
2019-01-11T18:19:48.501Z,0.50
2019-01-11T18:22:15.395Z,0.40
2019-01-11T18:24:42.980Z,0.40
2019-01-11T18:27:10.645Z,0.43
2019-01-11T18:29:37.647Z,0.33
2019-01-11T18:32:04.404Z,0.53
2019-01-11T18:34:32.003Z,0.30
2019-01-11T18:36:58.666Z,0.60
2019-01-11T18:39:25.423Z,0.30
2019-01-11T18:41:52.093Z,0.40
2019-01-11T18:44:18.790Z,0.47
2019-01-11T18:46:45.567Z,0.40
2019-01-11T18:49:12.299Z,0.37
2019-01-11T18:51:39.735Z,0.60
2019-01-11T18:54:06.465Z,0.40
2019-01-11T18:56:33.166Z,0.40
2019-01-11T18:58:59.920Z,0.30
2019-01-11T19:01:27.468Z,0.30
2019-01-11T19:03:55.166Z,0.40
2019-01-11T19:06:22.851Z,0.40
2019-01-11T19:08:49.591Z,0.40
2019-01-11T19:11:16.317Z,0.40
2019-01-11T19:13:43.751Z,0.50
2019-01-11T19:16:10.738Z,0.40
2019-01-11T19:18:37.391Z,0.50
2019-01-11T19:21:04.892Z,0.60
2019-01-11T19:23:32.371Z,0.40
2019-01-11T19:25:59.276Z,0.77
2019-01-11T19:28:25.992Z,0.30
2019-01-11T19:30:52.716Z,0.50
2019-01-11T19:33:19.400Z,0.50
2019-01-11T19:35:46.124Z,0.53
2019-01-11T19:38:13.621Z,0.60
2019-01-11T19:40:41.049Z,0.60
2019-01-11T19:43:07.852Z,0.40
2019-01-11T19:45:34.616Z,0.50
2019-01-11T19:48:01.397Z,0.40
2019-01-11T19:50:28.854Z,0.40
2019-01-11T19:52:55.757Z,0.60
2019-01-11T19:55:22.559Z,0.57
2019-01-11T19:57:50.203Z,0.40
2019-01-11T20:00:17.786Z,0.33
2019-01-11T20:02:44.534Z,0.30
2019-01-11T20:05:11.279Z,0.57
2019-01-11T20:07:38.067Z,0.37
2019-01-11T20:10:04.841Z,0.67
2019-01-11T20:12:31.577Z,0.43
2019-01-11T20:14:59.055Z,0.50
2019-01-11T20:17:25.869Z,0.43
2019-01-11T20:19:53.353Z,0.57
2019-01-11T20:22:20.072Z,0.57
2019-01-11T20:24:46.847Z,0.37
2019-01-11T20:27:13.816Z,0.63
2019-01-11T20:29:40.517Z,0.30
2019-01-11T20:32:07.214Z,0.50
2019-01-11T20:34:34.038Z,0.40
2019-01-11T20:37:00.777Z,0.30
2019-01-11T20:39:27.672Z,0.60
2019-01-11T20:41:54.574Z,0.37
2019-01-11T20:44:21.269Z,0.60
2019-01-11T20:46:47.938Z,0.30
2019-01-11T20:49:15.672Z,0.60
2019-01-11T20:51:42.490Z,0.50
2019-01-11T20:54:10.042Z,0.30
2019-01-11T20:56:36.913Z,0.40
2019-01-11T20:59:03.707Z,0.70
2019-01-11T21:01:30.485Z,0.40
2019-01-11T21:03:57.237Z,0.40
2019-01-11T21:06:23.921Z,0.30
2019-01-11T21:08:50.658Z,0.40
2019-01-11T21:11:17.317Z,0.50
2019-01-11T21:13:44.212Z,0.30
2019-01-11T21:16:11.121Z,0.30
2019-01-11T21:18:37.940Z,0.33
2019-01-11T21:21:04.753Z,0.50
2019-01-11T21:23:31.591Z,0.47
2019-01-11T21:25:58.278Z,0.30
2019-01-11T21:28:25.039Z,0.50
2019-01-11T21:30:57.361Z,0.43
2019-01-11T21:33:19.289Z,0.43
2019-01-11T21:35:46.007Z,0.60
2019-01-11T21:38:12.821Z,0.40
2019-01-11T21:40:39.648Z,0.40
2019-01-11T21:43:06.939Z,0.30
2019-01-11T21:45:33.937Z,0.30
2019-01-11T21:48:00.692Z,0.40
2019-01-11T21:50:28.977Z,0.40
2019-01-11T21:52:55.988Z,0.23
2019-01-11T21:55:22.838Z,0.43
2019-01-11T21:57:50.877Z,0.30
2019-01-11T22:00:24.122Z,0.40
2019-01-11T22:02:51.577Z,0.30
2019-01-11T22:05:19.024Z,0.43
2019-01-11T22:07:46.699Z,0.50
2019-01-11T22:10:13.930Z,0.40
2019-01-11T22:12:41.533Z,0.30
2019-01-11T22:15:08.438Z,0.50
2019-01-11T22:17:35.091Z,0.50
2019-01-11T22:20:01.874Z,0.40
2019-01-11T22:22:28.664Z,0.40
2019-01-11T22:24:56.266Z,0.87
2019-01-11T22:27:23.111Z,0.60
2019-01-11T22:29:49.784Z,0.60
2019-01-11T22:32:16.484Z,0.60
2019-01-11T22:34:43.225Z,0.60
2019-01-11T22:37:09.905Z,0.47
2019-01-11T22:39:36.601Z,0.57
2019-01-11T22:42:03.452Z,0.60
2019-01-11T22:44:30.129Z,0.43
2019-01-11T22:46:56.794Z,0.60
2019-01-11T22:49:24.317Z,0.33
2019-01-11T22:51:52.470Z,0.60
2019-01-11T22:54:19.427Z,0.40
2019-01-11T22:56:46.261Z,0.70
2019-01-11T22:59:12.934Z,0.50
2019-01-11T23:01:39.711Z,0.60
2019-01-11T23:04:07.053Z,0.60
2019-01-11T23:06:37.893Z,0.57
2019-01-11T23:09:05.423Z,0.60
2019-01-11T23:11:37.056Z,0.43
2019-01-11T23:14:03.807Z,0.53
2019-01-11T23:16:30.565Z,0.70
2019-01-11T23:18:57.296Z,0.60
2019-01-11T23:21:24.206Z,0.50
2019-01-11T23:23:51.910Z,0.50
2019-01-11T23:26:19.845Z,0.60
2019-01-11T23:28:46.643Z,0.33
2019-01-11T23:31:14.084Z,0.40
2019-01-11T23:33:40.862Z,0.60
2019-01-11T23:36:07.684Z,0.40
2019-01-11T23:38:35.754Z,0.40
2019-01-11T23:41:03.309Z,0.73
2019-01-11T23:43:30.748Z,0.67
2019-01-11T23:45:58.338Z,0.70
2019-01-11T23:48:25.804Z,0.57
2019-01-11T23:50:53.262Z,0.67
2019-01-11T23:53:20.010Z,0.53
2019-01-11T23:55:46.802Z,0.67
2019-01-11T23:58:13.529Z,0.30
